sensor_id;sensor_type;location;lat;lon;timestamp;pressure;altitude;pressure_sealevel;temperature;humidity
74615;BME280;63121;51.458;-0.110;2023-02-28T00:00:10;103131.81;;;6.12;62.45
74615;BME280;63121;51.458;-0.110;2023-02-28T00:02:37;103130.63;;;6.05;62.78
74615;BME280;63121;51.458;-0.110;2023-02-28T00:05:03;103131.91;;;5.95;62.82
74615;BME280;63121;51.458;-0.110;2023-02-28T00:07:30;103131.75;;;6.10;62.46
74615;BME280;63121;51.458;-0.110;2023-02-28T00:10:02;103131.03;;;5.95;63.16
74615;BME280;63121;51.458;-0.110;2023-02-28T00:12:28;103133.34;;;5.72;64.38
74615;BME280;63121;51.458;-0.110;2023-02-28T00:14:53;103134.59;;;5.80;63.80
74615;BME280;63121;51.458;-0.110;2023-02-28T00:17:19;103127.50;;;5.93;64.05
74615;BME280;63121;51.458;-0.110;2023-02-28T00:19:49;103119.38;;;5.65;64.91
74615;BME280;63121;51.458;-0.110;2023-02-28T00:22:20;103132.66;;;5.94;64.07
74615;BME280;63121;51.458;-0.110;2023-02-28T00:24:46;103122.44;;;6.12;63.80
74615;BME280;63121;51.458;-0.110;2023-02-28T00:27:12;103134.44;;;5.77;65.19
74615;BME280;63121;51.458;-0.110;2023-02-28T00:29:38;103123.03;;;5.88;64.78
74615;BME280;63121;51.458;-0.110;2023-02-28T00:32:04;103132.69;;;5.76;65.22
74615;BME280;63121;51.458;-0.110;2023-02-28T00:34:30;103128.19;;;5.90;65.03
74615;BME280;63121;51.458;-0.110;2023-02-28T00:36:55;103130.78;;;5.72;65.95
74615;BME280;63121;51.458;-0.110;2023-02-28T00:39:21;103128.88;;;5.68;65.70
74615;BME280;63121;51.458;-0.110;2023-02-28T00:41:46;103130.53;;;5.49;66.42
74615;BME280;63121;51.458;-0.110;2023-02-28T00:44:12;103138.53;;;5.56;66.48
74615;BME280;63121;51.458;-0.110;2023-02-28T00:46:37;103128.16;;;5.88;65.50
74615;BME280;63121;51.458;-0.110;2023-02-28T00:49:03;103138.25;;;5.85;65.60
74615;BME280;63121;51.458;-0.110;2023-02-28T00:51:28;103137.53;;;6.06;65.49
74615;BME280;63121;51.458;-0.110;2023-02-28T00:53:54;103137.75;;;6.10;65.05
74615;BME280;63121;51.458;-0.110;2023-02-28T00:56:19;103137.72;;;5.75;65.83
74615;BME280;63121;51.458;-0.110;2023-02-28T00:58:44;103142.00;;;5.74;66.28
74615;BME280;63121;51.458;-0.110;2023-02-28T01:01:10;103141.59;;;5.66;66.22
74615;BME280;63121;51.458;-0.110;2023-02-28T01:03:35;103140.13;;;5.54;66.56
74615;BME280;63121;51.458;-0.110;2023-02-28T01:06:00;103132.50;;;5.37;67.63
74615;BME280;63121;51.458;-0.110;2023-02-28T01:08:26;103139.72;;;5.80;66.21
74615;BME280;63121;51.458;-0.110;2023-02-28T01:10:52;103142.72;;;5.72;66.36
74615;BME280;63121;51.458;-0.110;2023-02-28T01:13:18;103141.81;;;5.71;66.45
74615;BME280;63121;51.458;-0.110;2023-02-28T01:15:49;103138.69;;;5.77;65.92
74615;BME280;63121;51.458;-0.110;2023-02-28T01:18:16;103132.44;;;5.89;65.70
74615;BME280;63121;51.458;-0.110;2023-02-28T01:20:41;103145.28;;;5.89;65.76
74615;BME280;63121;51.458;-0.110;2023-02-28T01:23:07;103147.84;;;5.72;66.46
74615;BME280;63121;51.458;-0.110;2023-02-28T01:25:35;103143.38;;;5.67;66.32
74615;BME280;63121;51.458;-0.110;2023-02-28T01:28:00;103146.78;;;5.32;67.95
74615;BME280;63121;51.458;-0.110;2023-02-28T01:30:26;103148.66;;;5.53;67.23
74615;BME280;63121;51.458;-0.110;2023-02-28T01:32:51;103151.38;;;5.39;67.85
74615;BME280;63121;51.458;-0.110;2023-02-28T01:35:18;103140.72;;;5.48;67.67
74615;BME280;63121;51.458;-0.110;2023-02-28T01:37:44;103155.53;;;5.72;67.11
74615;BME280;63121;51.458;-0.110;2023-02-28T01:40:10;103153.84;;;5.72;66.29
74615;BME280;63121;51.458;-0.110;2023-02-28T01:42:35;103147.47;;;5.64;66.53
74615;BME280;63121;51.458;-0.110;2023-02-28T01:45:18;103154.06;;;5.77;66.42
74615;BME280;63121;51.458;-0.110;2023-02-28T01:47:45;103146.25;;;5.39;67.62
74615;BME280;63121;51.458;-0.110;2023-02-28T01:50:19;103146.94;;;5.53;67.33
74615;BME280;63121;51.458;-0.110;2023-02-28T01:52:47;103150.09;;;5.83;66.38
74615;BME280;63121;51.458;-0.110;2023-02-28T01:55:15;103157.94;;;5.68;66.97
74615;BME280;63121;51.458;-0.110;2023-02-28T01:57:46;103147.47;;;5.82;66.49
74615;BME280;63121;51.458;-0.110;2023-02-28T02:00:16;103149.50;;;5.71;66.83
74615;BME280;63121;51.458;-0.110;2023-02-28T02:02:45;103157.66;;;5.80;66.50
74615;BME280;63121;51.458;-0.110;2023-02-28T02:05:20;103160.78;;;5.75;66.43
74615;BME280;63121;51.458;-0.110;2023-02-28T02:07:49;103155.97;;;5.81;66.12
74615;BME280;63121;51.458;-0.110;2023-02-28T02:10:19;103153.25;;;5.60;67.47
74615;BME280;63121;51.458;-0.110;2023-02-28T02:15:34;103154.13;;;5.42;67.81
74615;BME280;63121;51.458;-0.110;2023-02-28T02:18:13;103158.63;;;5.30;68.15
74615;BME280;63121;51.458;-0.110;2023-02-28T02:20:58;103161.06;;;5.63;67.31
74615;BME280;63121;51.458;-0.110;2023-02-28T02:31:48;103147.69;;;5.50;67.41
74615;BME280;63121;51.458;-0.110;2023-02-28T02:39:49;103155.50;;;5.54;66.92
74615;BME280;63121;51.458;-0.110;2023-02-28T02:42:25;103152.94;;;5.36;68.20
74615;BME280;63121;51.458;-0.110;2023-02-28T02:45:01;103142.31;;;5.28;68.64
74615;BME280;63121;51.458;-0.110;2023-02-28T02:47:30;103151.28;;;5.20;69.18
74615;BME280;63121;51.458;-0.110;2023-02-28T02:49:59;103145.69;;;5.45;67.65
74615;BME280;63121;51.458;-0.110;2023-02-28T02:52:34;103151.38;;;5.39;68.53
74615;BME280;63121;51.458;-0.110;2023-02-28T02:55:02;103140.84;;;5.33;68.78
74615;BME280;63121;51.458;-0.110;2023-02-28T02:57:53;103146.41;;;5.08;69.13
74615;BME280;63121;51.458;-0.110;2023-02-28T03:00:24;103154.50;;;4.99;69.93
74615;BME280;63121;51.458;-0.110;2023-02-28T03:02:54;103147.03;;;5.20;69.44
74615;BME280;63121;51.458;-0.110;2023-02-28T03:05:25;103155.31;;;5.15;69.38
74615;BME280;63121;51.458;-0.110;2023-02-28T03:07:51;103138.13;;;5.30;68.67
74615;BME280;63121;51.458;-0.110;2023-02-28T03:10:35;103143.66;;;5.38;68.19
74615;BME280;63121;51.458;-0.110;2023-02-28T03:13:14;103137.94;;;5.43;68.18
74615;BME280;63121;51.458;-0.110;2023-02-28T03:24:08;103140.25;;;5.39;68.55
74615;BME280;63121;51.458;-0.110;2023-02-28T03:26:40;103139.47;;;5.58;67.39
74615;BME280;63121;51.458;-0.110;2023-02-28T03:32:13;103145.94;;;5.33;68.66
74615;BME280;63121;51.458;-0.110;2023-02-28T03:34:51;103150.69;;;5.42;67.94
74615;BME280;63121;51.458;-0.110;2023-02-28T03:37:22;103152.31;;;5.23;68.99
74615;BME280;63121;51.458;-0.110;2023-02-28T03:39:56;103151.97;;;4.83;70.29
74615;BME280;63121;51.458;-0.110;2023-02-28T03:42:27;103153.50;;;5.30;69.00
74615;BME280;63121;51.458;-0.110;2023-02-28T03:44:58;103153.63;;;5.33;69.00
74615;BME280;63121;51.458;-0.110;2023-02-28T03:47:29;103154.34;;;5.47;68.54
74615;BME280;63121;51.458;-0.110;2023-02-28T03:50:03;103160.25;;;5.46;68.29
74615;BME280;63121;51.458;-0.110;2023-02-28T03:52:34;103158.56;;;5.12;69.65
74615;BME280;63121;51.458;-0.110;2023-02-28T03:55:03;103161.31;;;4.99;70.47
74615;BME280;63121;51.458;-0.110;2023-02-28T03:57:45;103162.94;;;5.31;69.18
74615;BME280;63121;51.458;-0.110;2023-02-28T04:00:20;103155.25;;;5.31;69.23
74615;BME280;63121;51.458;-0.110;2023-02-28T04:02:46;103157.13;;;5.17;69.54
74615;BME280;63121;51.458;-0.110;2023-02-28T04:05:13;103172.72;;;5.22;69.64
74615;BME280;63121;51.458;-0.110;2023-02-28T04:07:39;103166.94;;;5.26;69.21
74615;BME280;63121;51.458;-0.110;2023-02-28T04:10:05;103162.44;;;5.04;70.44
74615;BME280;63121;51.458;-0.110;2023-02-28T04:12:30;103166.63;;;5.20;69.46
74615;BME280;63121;51.458;-0.110;2023-02-28T04:14:55;103155.09;;;5.28;68.89
74615;BME280;63121;51.458;-0.110;2023-02-28T04:17:21;103155.22;;;4.97;69.88
74615;BME280;63121;51.458;-0.110;2023-02-28T04:19:46;103155.41;;;4.83;70.55
74615;BME280;63121;51.458;-0.110;2023-02-28T04:22:12;103154.59;;;5.01;70.82
74615;BME280;63121;51.458;-0.110;2023-02-28T04:24:37;103155.09;;;4.94;70.60
74615;BME280;63121;51.458;-0.110;2023-02-28T04:27:07;103151.25;;;4.85;70.80
74615;BME280;63121;51.458;-0.110;2023-02-28T04:29:33;103157.16;;;5.01;71.13
74615;BME280;63121;51.458;-0.110;2023-02-28T04:32:00;103163.09;;;4.83;71.16
74615;BME280;63121;51.458;-0.110;2023-02-28T04:34:27;103164.28;;;4.90;70.98
74615;BME280;63121;51.458;-0.110;2023-02-28T04:36:53;103167.72;;;4.91;70.55
74615;BME280;63121;51.458;-0.110;2023-02-28T04:39:21;103169.31;;;5.05;70.43
74615;BME280;63121;51.458;-0.110;2023-02-28T04:41:46;103166.97;;;4.93;70.31
74615;BME280;63121;51.458;-0.110;2023-02-28T04:44:12;103180.28;;;5.02;69.84
74615;BME280;63121;51.458;-0.110;2023-02-28T04:46:38;103176.91;;;5.03;70.12
74615;BME280;63121;51.458;-0.110;2023-02-28T04:49:03;103183.06;;;5.07;69.72
74615;BME280;63121;51.458;-0.110;2023-02-28T04:51:29;103181.03;;;5.18;69.14
74615;BME280;63121;51.458;-0.110;2023-02-28T04:53:55;103180.56;;;5.25;68.64
74615;BME280;63121;51.458;-0.110;2023-02-28T04:56:20;103179.69;;;5.08;69.24
74615;BME280;63121;51.458;-0.110;2023-02-28T04:58:46;103179.63;;;5.06;68.86
74615;BME280;63121;51.458;-0.110;2023-02-28T05:01:24;103178.44;;;5.00;69.22
74615;BME280;63121;51.458;-0.110;2023-02-28T05:03:52;103183.28;;;4.95;69.92
74615;BME280;63121;51.458;-0.110;2023-02-28T05:06:18;103177.22;;;4.93;69.72
74615;BME280;63121;51.458;-0.110;2023-02-28T05:08:45;103188.03;;;4.87;70.06
74615;BME280;63121;51.458;-0.110;2023-02-28T05:11:19;103189.06;;;4.91;70.41
74615;BME280;63121;51.458;-0.110;2023-02-28T05:13:45;103192.28;;;4.87;70.11
74615;BME280;63121;51.458;-0.110;2023-02-28T05:16:10;103192.59;;;4.77;71.15
74615;BME280;63121;51.458;-0.110;2023-02-28T05:18:36;103194.19;;;4.75;71.56
74615;BME280;63121;51.458;-0.110;2023-02-28T05:21:01;103186.19;;;4.68;71.99
74615;BME280;63121;51.458;-0.110;2023-02-28T05:23:27;103185.94;;;4.97;70.63
74615;BME280;63121;51.458;-0.110;2023-02-28T05:25:53;103186.50;;;5.07;69.89
74615;BME280;63121;51.458;-0.110;2023-02-28T05:28:19;103193.78;;;4.83;70.78
74615;BME280;63121;51.458;-0.110;2023-02-28T05:30:44;103188.38;;;4.94;70.79
74615;BME280;63121;51.458;-0.110;2023-02-28T05:33:11;103198.59;;;4.77;71.43
74615;BME280;63121;51.458;-0.110;2023-02-28T05:35:41;103195.94;;;4.76;71.59
74615;BME280;63121;51.458;-0.110;2023-02-28T05:38:08;103200.59;;;4.66;71.92
74615;BME280;63121;51.458;-0.110;2023-02-28T05:40:33;103200.09;;;4.90;71.22
74615;BME280;63121;51.458;-0.110;2023-02-28T05:42:59;103201.78;;;4.73;71.57
74615;BME280;63121;51.458;-0.110;2023-02-28T05:45:24;103210.84;;;4.83;71.64
74615;BME280;63121;51.458;-0.110;2023-02-28T05:47:53;103202.97;;;4.63;72.11
74615;BME280;63121;51.458;-0.110;2023-02-28T05:50:18;103207.22;;;4.79;71.50
74615;BME280;63121;51.458;-0.110;2023-02-28T05:52:44;103211.44;;;4.95;70.87
74615;BME280;63121;51.458;-0.110;2023-02-28T05:55:09;103214.75;;;4.93;70.75
74615;BME280;63121;51.458;-0.110;2023-02-28T05:57:36;103218.59;;;5.01;70.27
74615;BME280;63121;51.458;-0.110;2023-02-28T06:00:02;103216.03;;;5.01;70.45
74615;BME280;63121;51.458;-0.110;2023-02-28T06:02:28;103221.38;;;5.22;69.90
74615;BME280;63121;51.458;-0.110;2023-02-28T06:04:53;103224.66;;;4.86;71.58
74615;BME280;63121;51.458;-0.110;2023-02-28T06:07:19;103220.50;;;5.05;71.12
74615;BME280;63121;51.458;-0.110;2023-02-28T06:09:44;103223.94;;;5.22;70.61
74615;BME280;63121;51.458;-0.110;2023-02-28T06:12:09;103227.13;;;5.34;70.51
74615;BME280;63121;51.458;-0.110;2023-02-28T06:14:35;103226.31;;;5.35;70.22
74615;BME280;63121;51.458;-0.110;2023-02-28T06:17:02;103226.25;;;5.34;70.32
74615;BME280;63121;51.458;-0.110;2023-02-28T06:19:28;103227.41;;;5.57;69.82
74615;BME280;63121;51.458;-0.110;2023-02-28T06:21:55;103232.75;;;5.61;69.40
74615;BME280;63121;51.458;-0.110;2023-02-28T06:24:23;103234.94;;;5.54;69.75
74615;BME280;63121;51.458;-0.110;2023-02-28T06:26:49;103226.69;;;5.77;68.98
74615;BME280;63121;51.458;-0.110;2023-02-28T06:29:15;103227.13;;;5.68;69.23
74615;BME280;63121;51.458;-0.110;2023-02-28T06:31:42;103223.56;;;5.83;69.08
74615;BME280;63121;51.458;-0.110;2023-02-28T06:34:09;103222.03;;;5.86;68.58
74615;BME280;63121;51.458;-0.110;2023-02-28T06:36:37;103227.47;;;5.93;68.18
74615;BME280;63121;51.458;-0.110;2023-02-28T06:39:02;103224.13;;;6.12;67.47
74615;BME280;63121;51.458;-0.110;2023-02-28T06:41:28;103227.00;;;6.18;67.49
74615;BME280;63121;51.458;-0.110;2023-02-28T06:43:53;103222.50;;;6.31;66.99
74615;BME280;63121;51.458;-0.110;2023-02-28T06:46:19;103221.41;;;6.26;67.00
74615;BME280;63121;51.458;-0.110;2023-02-28T06:48:45;103226.84;;;5.97;67.38
74615;BME280;63121;51.458;-0.110;2023-02-28T06:51:20;103219.66;;;6.07;67.22
74615;BME280;63121;51.458;-0.110;2023-02-28T06:53:47;103221.78;;;6.16;66.86
74615;BME280;63121;51.458;-0.110;2023-02-28T06:56:15;103220.38;;;6.23;66.59
74615;BME280;63121;51.458;-0.110;2023-02-28T06:58:41;103212.66;;;6.41;65.75
74615;BME280;63121;51.458;-0.110;2023-02-28T07:01:07;103211.78;;;6.40;65.73
74615;BME280;63121;51.458;-0.110;2023-02-28T07:03:35;103213.69;;;6.44;66.03
74615;BME280;63121;51.458;-0.110;2023-02-28T07:06:01;103214.72;;;6.48;65.99
74615;BME280;63121;51.458;-0.110;2023-02-28T07:08:27;103219.47;;;6.58;65.63
74615;BME280;63121;51.458;-0.110;2023-02-28T07:10:56;103229.44;;;6.34;65.77
74615;BME280;63121;51.458;-0.110;2023-02-28T07:13:22;103224.84;;;6.27;66.22
74615;BME280;63121;51.458;-0.110;2023-02-28T07:15:59;103228.22;;;6.08;66.73
74615;BME280;63121;51.458;-0.110;2023-02-28T07:18:25;103225.28;;;6.18;66.60
74615;BME280;63121;51.458;-0.110;2023-02-28T07:20:51;103239.22;;;6.23;66.06
74615;BME280;63121;51.458;-0.110;2023-02-28T07:23:17;103231.44;;;6.22;66.15
74615;BME280;63121;51.458;-0.110;2023-02-28T07:25:43;103239.09;;;6.58;65.50
74615;BME280;63121;51.458;-0.110;2023-02-28T07:28:09;103235.06;;;6.63;65.31
74615;BME280;63121;51.458;-0.110;2023-02-28T07:30:34;103233.84;;;6.74;64.76
74615;BME280;63121;51.458;-0.110;2023-02-28T07:32:59;103230.91;;;6.47;65.54
74615;BME280;63121;51.458;-0.110;2023-02-28T07:35:25;103234.75;;;6.37;65.84
74615;BME280;63121;51.458;-0.110;2023-02-28T07:37:50;103229.94;;;6.45;65.57
74615;BME280;63121;51.458;-0.110;2023-02-28T07:40:16;103224.59;;;6.58;65.68
74615;BME280;63121;51.458;-0.110;2023-02-28T07:42:43;103231.34;;;6.56;65.54
74615;BME280;63121;51.458;-0.110;2023-02-28T07:45:10;103231.75;;;6.65;65.42
74615;BME280;63121;51.458;-0.110;2023-02-28T07:47:37;103231.06;;;6.50;65.78
74615;BME280;63121;51.458;-0.110;2023-02-28T07:50:04;103229.53;;;6.92;64.66
74615;BME280;63121;51.458;-0.110;2023-02-28T07:52:29;103240.41;;;6.87;64.77
74615;BME280;63121;51.458;-0.110;2023-02-28T07:54:55;103236.03;;;7.04;63.83
74615;BME280;63121;51.458;-0.110;2023-02-28T07:57:20;103234.75;;;7.13;63.87
74615;BME280;63121;51.458;-0.110;2023-02-28T07:59:46;103238.53;;;7.02;63.80
74615;BME280;63121;51.458;-0.110;2023-02-28T08:02:18;103237.19;;;7.10;63.64
74615;BME280;63121;51.458;-0.110;2023-02-28T08:04:44;103231.78;;;7.24;63.09
74615;BME280;63121;51.458;-0.110;2023-02-28T08:07:09;103237.38;;;7.15;63.08
74615;BME280;63121;51.458;-0.110;2023-02-28T08:09:41;103238.88;;;7.10;63.43
74615;BME280;63121;51.458;-0.110;2023-02-28T08:12:08;103243.88;;;7.07;63.24
74615;BME280;63121;51.458;-0.110;2023-02-28T08:14:35;103244.47;;;7.40;62.97
74615;BME280;63121;51.458;-0.110;2023-02-28T08:17:01;103242.78;;;7.21;62.87
74615;BME280;63121;51.458;-0.110;2023-02-28T08:19:26;103241.59;;;7.53;61.84
74615;BME280;63121;51.458;-0.110;2023-02-28T08:21:52;103247.88;;;7.20;62.24
74615;BME280;63121;51.458;-0.110;2023-02-28T08:24:17;103243.09;;;7.29;62.34
74615;BME280;63121;51.458;-0.110;2023-02-28T08:26:42;103246.41;;;7.46;61.86
74615;BME280;63121;51.458;-0.110;2023-02-28T08:29:08;103245.13;;;7.17;62.51
74615;BME280;63121;51.458;-0.110;2023-02-28T08:31:33;103239.41;;;7.63;61.08
74615;BME280;63121;51.458;-0.110;2023-02-28T08:34:04;103240.41;;;7.87;60.25
74615;BME280;63121;51.458;-0.110;2023-02-28T08:36:30;103231.19;;;7.71;60.46
74615;BME280;63121;51.458;-0.110;2023-02-28T08:38:56;103240.22;;;8.04;60.04
74615;BME280;63121;51.458;-0.110;2023-02-28T08:41:22;103231.91;;;8.11;59.78
74615;BME280;63121;51.458;-0.110;2023-02-28T08:43:47;103230.44;;;7.95;59.53
74615;BME280;63121;51.458;-0.110;2023-02-28T08:46:13;103237.22;;;7.93;59.71
74615;BME280;63121;51.458;-0.110;2023-02-28T08:48:39;103241.56;;;8.38;58.96
74615;BME280;63121;51.458;-0.110;2023-02-28T08:51:10;103236.56;;;8.20;59.18
74615;BME280;63121;51.458;-0.110;2023-02-28T08:53:37;103236.06;;;8.07;59.54
74615;BME280;63121;51.458;-0.110;2023-02-28T08:56:08;103232.00;;;8.12;59.47
74615;BME280;63121;51.458;-0.110;2023-02-28T08:58:34;103235.97;;;7.83;60.02
74615;BME280;63121;51.458;-0.110;2023-02-28T09:01:07;103238.25;;;8.19;59.90
74615;BME280;63121;51.458;-0.110;2023-02-28T09:03:32;103230.22;;;8.78;58.33
74615;BME280;63121;51.458;-0.110;2023-02-28T09:05:59;103226.63;;;8.29;59.02
74615;BME280;63121;51.458;-0.110;2023-02-28T09:08:26;103234.59;;;8.58;58.75
74615;BME280;63121;51.458;-0.110;2023-02-28T09:10:52;103224.34;;;8.82;58.36
74615;BME280;63121;51.458;-0.110;2023-02-28T09:13:19;103225.06;;;8.78;58.16
74615;BME280;63121;51.458;-0.110;2023-02-28T09:15:44;103223.75;;;9.13;57.32
74615;BME280;63121;51.458;-0.110;2023-02-28T09:18:10;103216.25;;;9.45;56.77
74615;BME280;63121;51.458;-0.110;2023-02-28T09:20:40;103220.78;;;8.78;58.26
74615;BME280;63121;51.458;-0.110;2023-02-28T09:23:07;103222.84;;;9.11;56.90
74615;BME280;63121;51.458;-0.110;2023-02-28T09:25:33;103218.31;;;9.05;56.88
74615;BME280;63121;51.458;-0.110;2023-02-28T09:27:59;103223.66;;;8.63;58.02
74615;BME280;63121;51.458;-0.110;2023-02-28T09:30:24;103224.34;;;9.30;56.84
74615;BME280;63121;51.458;-0.110;2023-02-28T09:32:50;103213.56;;;9.42;55.96
74615;BME280;63121;51.458;-0.110;2023-02-28T09:35:23;103218.56;;;9.63;55.20
74615;BME280;63121;51.458;-0.110;2023-02-28T09:37:50;103215.78;;;9.56;55.97
74615;BME280;63121;51.458;-0.110;2023-02-28T09:40:17;103206.31;;;9.83;55.06
74615;BME280;63121;51.458;-0.110;2023-02-28T09:42:46;103217.63;;;9.61;55.21
74615;BME280;63121;51.458;-0.110;2023-02-28T09:45:36;103208.78;;;9.03;57.17
74615;BME280;63121;51.458;-0.110;2023-02-28T09:48:49;103209.59;;;9.26;56.96
74615;BME280;63121;51.458;-0.110;2023-02-28T09:50:52;103212.41;;;8.84;58.07
74615;BME280;63121;51.458;-0.110;2023-02-28T09:53:29;103204.75;;;9.61;56.12
74615;BME280;63121;51.458;-0.110;2023-02-28T09:56:04;103205.59;;;9.10;56.81
74615;BME280;63121;51.458;-0.110;2023-02-28T09:58:44;103195.94;;;9.28;56.80
74615;BME280;63121;51.458;-0.110;2023-02-28T10:01:21;103214.44;;;9.95;55.52
74615;BME280;63121;51.458;-0.110;2023-02-28T10:03:56;103213.81;;;9.24;56.84
74615;BME280;63121;51.458;-0.110;2023-02-28T10:06:26;103217.72;;;9.38;56.54
74615;BME280;63121;51.458;-0.110;2023-02-28T10:09:14;103220.63;;;9.22;56.56
74615;BME280;63121;51.458;-0.110;2023-02-28T10:11:42;103217.00;;;9.16;56.88
74615;BME280;63121;51.458;-0.110;2023-02-28T10:14:19;103215.75;;;10.09;54.50
74615;BME280;63121;51.458;-0.110;2023-02-28T10:16:59;103215.91;;;9.60;55.33
74615;BME280;63121;51.458;-0.110;2023-02-28T10:19:44;103205.38;;;9.28;56.80
74615;BME280;63121;51.458;-0.110;2023-02-28T10:24:41;103201.38;;;9.36;56.50
74615;BME280;63121;51.458;-0.110;2023-02-28T10:27:14;103205.88;;;9.43;56.64
74615;BME280;63121;51.458;-0.110;2023-02-28T10:29:43;103204.22;;;9.71;56.39
74615;BME280;63121;51.458;-0.110;2023-02-28T10:32:12;103187.50;;;9.08;57.68
74615;BME280;63121;51.458;-0.110;2023-02-28T10:34:40;103199.09;;;9.21;57.88
74615;BME280;63121;51.458;-0.110;2023-02-28T10:37:06;103198.53;;;9.04;57.98
74615;BME280;63121;51.458;-0.110;2023-02-28T10:39:36;103199.09;;;9.21;57.66
74615;BME280;63121;51.458;-0.110;2023-02-28T10:42:03;103203.94;;;9.36;57.22
74615;BME280;63121;51.458;-0.110;2023-02-28T10:44:28;103209.53;;;9.75;56.36
74615;BME280;63121;51.458;-0.110;2023-02-28T10:46:53;103199.28;;;9.51;57.03
74615;BME280;63121;51.458;-0.110;2023-02-28T10:51:50;103194.66;;;9.41;58.13
74615;BME280;63121;51.458;-0.110;2023-02-28T10:54:20;103193.72;;;9.39;58.02
74615;BME280;63121;51.458;-0.110;2023-02-28T10:57:21;103189.06;;;9.03;58.97
74615;BME280;63121;51.458;-0.110;2023-02-28T10:59:53;103183.81;;;9.26;58.77
74615;BME280;63121;51.458;-0.110;2023-02-28T11:02:33;103187.78;;;9.42;58.66
74615;BME280;63121;51.458;-0.110;2023-02-28T11:04:59;103189.19;;;9.57;58.05
74615;BME280;63121;51.458;-0.110;2023-02-28T11:07:25;103178.53;;;9.48;58.81
74615;BME280;63121;51.458;-0.110;2023-02-28T11:09:52;103173.41;;;9.75;58.60
74615;BME280;63121;51.458;-0.110;2023-02-28T11:14:56;103163.63;;;9.92;57.60
74615;BME280;63121;51.458;-0.110;2023-02-28T11:17:29;103168.75;;;9.91;57.82
74615;BME280;63121;51.458;-0.110;2023-02-28T11:19:58;103161.97;;;9.67;59.02
74615;BME280;63121;51.458;-0.110;2023-02-28T11:22:31;103169.13;;;9.76;58.59
74615;BME280;63121;51.458;-0.110;2023-02-28T11:25:02;103161.34;;;10.02;57.66
74615;BME280;63121;51.458;-0.110;2023-02-28T11:29:58;103157.16;;;9.25;60.86
74615;BME280;63121;51.458;-0.110;2023-02-28T11:32:24;103135.81;;;9.55;60.09
74615;BME280;63121;51.458;-0.110;2023-02-28T11:37:34;103103.81;;;9.77;60.27
74615;BME280;63121;51.458;-0.110;2023-02-28T11:40:00;103107.06;;;9.43;61.10
74615;BME280;63121;51.458;-0.110;2023-02-28T11:45:42;103141.41;;;9.69;61.27
74615;BME280;63121;51.458;-0.110;2023-02-28T11:48:33;103147.13;;;9.87;60.68
74615;BME280;63121;51.458;-0.110;2023-02-28T11:54:33;103154.44;;;10.29;59.21
74615;BME280;63121;51.458;-0.110;2023-02-28T11:57:20;103148.16;;;10.21;59.45
74615;BME280;63121;51.458;-0.110;2023-02-28T12:24:23;103077.25;;;10.70;58.67
74615;BME280;63121;51.458;-0.110;2023-02-28T12:26:54;103080.81;;;10.13;59.68
74615;BME280;63121;51.458;-0.110;2023-02-28T12:31:54;103065.50;;;9.89;61.51
74615;BME280;63121;51.458;-0.110;2023-02-28T12:34:26;103056.44;;;9.46;62.97
74615;BME280;63121;51.458;-0.110;2023-02-28T12:36:55;103064.22;;;9.75;61.44
74615;BME280;63121;51.458;-0.110;2023-02-28T12:39:35;103067.28;;;9.63;62.47
74615;BME280;63121;51.458;-0.110;2023-02-28T12:42:10;103058.63;;;10.20;60.45
74615;BME280;63121;51.458;-0.110;2023-02-28T12:44:45;103071.03;;;10.03;60.79
74615;BME280;63121;51.458;-0.110;2023-02-28T12:47:17;103065.38;;;9.85;60.87
74615;BME280;63121;51.458;-0.110;2023-02-28T12:49:49;103061.09;;;9.85;61.20
74615;BME280;63121;51.458;-0.110;2023-02-28T12:52:22;103058.97;;;9.72;61.28
74615;BME280;63121;51.458;-0.110;2023-02-28T12:57:45;103050.19;;;9.67;61.77
74615;BME280;63121;51.458;-0.110;2023-02-28T13:00:20;103043.75;;;9.81;60.82
74615;BME280;63121;51.458;-0.110;2023-02-28T13:03:24;103038.03;;;9.34;62.68
74615;BME280;63121;51.458;-0.110;2023-02-28T13:06:26;103031.69;;;9.51;62.19
74615;BME280;63121;51.458;-0.110;2023-02-28T13:09:02;103021.44;;;9.53;62.79
74615;BME280;63121;51.458;-0.110;2023-02-28T13:11:49;103019.25;;;9.67;62.02
74615;BME280;63121;51.458;-0.110;2023-02-28T13:14:45;103015.06;;;10.01;61.09
74615;BME280;63121;51.458;-0.110;2023-02-28T13:17:11;103000.91;;;10.16;60.36
74615;BME280;63121;51.458;-0.110;2023-02-28T13:24:53;102991.66;;;9.35;62.76
74615;BME280;63121;51.458;-0.110;2023-02-28T13:27:31;103000.47;;;9.42;62.46
74615;BME280;63121;51.458;-0.110;2023-02-28T13:29:57;102988.13;;;9.61;61.60
74615;BME280;63121;51.458;-0.110;2023-02-28T13:47:44;102982.38;;;9.69;61.67
74615;BME280;63121;51.458;-0.110;2023-02-28T13:55:57;102972.03;;;10.30;60.11
74615;BME280;63121;51.458;-0.110;2023-02-28T14:01:53;102966.75;;;9.95;61.71
74615;BME280;63121;51.458;-0.110;2023-02-28T14:07:08;102975.28;;;9.62;62.25
74615;BME280;63121;51.458;-0.110;2023-02-28T14:09:40;102957.16;;;9.89;61.23
74615;BME280;63121;51.458;-0.110;2023-02-28T14:15:41;102964.97;;;9.62;61.90
74615;BME280;63121;51.458;-0.110;2023-02-28T14:18:21;102970.19;;;9.35;62.67
74615;BME280;63121;51.458;-0.110;2023-02-28T14:20:49;102960.31;;;9.50;62.33
74615;BME280;63121;51.458;-0.110;2023-02-28T14:23:47;102950.28;;;9.60;62.59
74615;BME280;63121;51.458;-0.110;2023-02-28T14:32:13;102937.03;;;10.09;60.56
74615;BME280;63121;51.458;-0.110;2023-02-28T14:34:55;102928.59;;;9.83;61.65
74615;BME280;63121;51.458;-0.110;2023-02-28T14:37:29;102929.91;;;10.31;60.03
74615;BME280;63121;51.458;-0.110;2023-02-28T14:39:57;102934.13;;;9.97;61.13
74615;BME280;63121;51.458;-0.110;2023-02-28T14:42:35;102922.13;;;9.97;61.03
74615;BME280;63121;51.458;-0.110;2023-02-28T14:45:03;102919.59;;;10.32;59.96
74615;BME280;63121;51.458;-0.110;2023-02-28T14:47:31;102917.13;;;9.72;61.73
74615;BME280;63121;51.458;-0.110;2023-02-28T14:49:58;102918.84;;;10.05;61.08
74615;BME280;63121;51.458;-0.110;2023-02-28T14:52:27;102908.06;;;10.20;60.45
74615;BME280;63121;51.458;-0.110;2023-02-28T14:54:57;102917.88;;;10.00;61.08
74615;BME280;63121;51.458;-0.110;2023-02-28T14:57:34;102909.44;;;10.38;60.05
74615;BME280;63121;51.458;-0.110;2023-02-28T15:02:46;102921.09;;;9.61;61.86